createdAt,value
2019-04-14T00:01:06.871Z,77.69
2019-04-14T00:03:56.440Z,78.13
2019-04-14T00:06:27.066Z,78.57
2019-04-14T00:08:58.621Z,78.66
2019-04-14T00:11:30.141Z,78.64
2019-04-14T00:14:00.951Z,78.76
2019-04-14T00:16:33.470Z,78.76
2019-04-14T00:19:04.433Z,78.84
2019-04-14T00:21:35.013Z,78.65
2019-04-14T00:24:07.286Z,78.43
2019-04-14T00:26:38.012Z,78.96
2019-04-14T00:29:08.958Z,78.54
2019-04-14T00:31:39.881Z,77.43
2019-04-14T00:34:26.886Z,78.22
2019-04-14T00:37:16.335Z,78.74
2019-04-14T00:39:48.975Z,77.61
2019-04-14T00:42:30.203Z,78.25
2019-04-14T00:45:02.843Z,78.62
2019-04-14T00:47:50.856Z,78.77
2019-04-14T00:50:10.156Z,78.98
2019-04-14T00:52:41.530Z,77.97
2019-04-14T00:55:12.174Z,78.20
2019-04-14T00:57:42.646Z,78.11
2019-04-14T01:00:16.958Z,79.16
2019-04-14T01:02:45.539Z,79.25
2019-04-14T01:05:17.422Z,78.65
2019-04-14T01:07:48.074Z,78.27
2019-04-14T01:10:19.224Z,78.72
2019-04-14T01:12:49.741Z,78.84
2019-04-14T01:15:20.191Z,79.15
2019-04-14T01:17:52.784Z,79.40
2019-04-14T01:20:23.557Z,79.03
2019-04-14T01:22:55.215Z,79.58
2019-04-14T01:25:26.084Z,80.03
2019-04-14T01:27:58.128Z,79.32
2019-04-14T01:30:28.660Z,79.44
2019-04-14T01:32:59.117Z,79.32
2019-04-14T01:35:29.563Z,79.82
2019-04-14T01:38:00.076Z,79.00
2019-04-14T01:40:31.461Z,79.55
2019-04-14T01:43:01.987Z,78.82
2019-04-14T01:45:32.416Z,79.89
2019-04-14T01:48:03.871Z,79.29
2019-04-14T01:50:36.574Z,79.10
2019-04-14T01:53:11.935Z,79.54
2019-04-14T01:56:03.515Z,78.69
2019-04-14T01:58:36.097Z,79.10
2019-04-14T02:01:24.173Z,79.04
2019-04-14T02:03:54.651Z,78.73
2019-04-14T02:06:25.062Z,78.68
2019-04-14T02:08:56.751Z,78.46
2019-04-14T02:11:27.458Z,79.23
2019-04-14T02:13:59.117Z,79.84
2019-04-14T02:16:37.883Z,78.92
2019-04-14T02:19:04.303Z,80.09
2019-04-14T02:21:34.955Z,79.34
2019-04-14T02:24:05.546Z,79.16
2019-04-14T02:26:37.228Z,80.11
2019-04-14T02:29:08.016Z,80.04
2019-04-14T02:32:07.302Z,80.87
2019-04-14T02:34:44.870Z,81.67
2019-04-14T02:37:15.539Z,81.69
2019-04-14T02:39:46.580Z,81.00
2019-04-14T02:42:32.590Z,82.21
2019-04-14T02:44:45.756Z,81.59
2019-04-14T02:47:39.373Z,81.15
2019-04-14T02:52:20.487Z,81.03
2019-04-14T02:54:59.998Z,82.14
2019-04-14T03:00:18.856Z,81.30
2019-04-14T03:02:44.361Z,80.74
2019-04-14T03:05:16.333Z,81.10
2019-04-14T03:07:58.163Z,81.22
2019-04-14T03:10:24.607Z,81.32
2019-04-14T03:12:57.930Z,81.01
2019-04-14T03:15:37.922Z,81.50
2019-04-14T03:18:24.498Z,81.00
2019-04-14T03:20:40.174Z,80.63
2019-04-14T03:23:19.244Z,80.57
2019-04-14T03:25:43.675Z,80.51
2019-04-14T03:31:47.164Z,81.03
2019-04-14T03:34:17.735Z,81.07
2019-04-14T03:37:39.589Z,81.63
2019-04-14T03:43:48.369Z,81.16
2019-04-14T03:49:10.014Z,81.04
2019-04-14T03:54:01.715Z,81.62
2019-04-14T03:56:14.943Z,81.51
2019-04-14T03:58:45.138Z,81.46
2019-04-14T04:01:15.638Z,81.24
2019-04-14T04:03:46.067Z,80.62
2019-04-14T04:06:16.564Z,81.19
2019-04-14T04:08:47.019Z,81.02
2019-04-14T04:11:17.503Z,80.71
2019-04-14T04:13:47.858Z,80.73
2019-04-14T04:16:20.196Z,79.99
2019-04-14T04:18:58.809Z,80.87
2019-04-14T04:21:34.179Z,80.80
2019-04-14T04:24:12.875Z,81.20
2019-04-14T04:26:45.116Z,80.35
2019-04-14T04:29:20.203Z,80.37
2019-04-14T04:31:58.949Z,81.11
2019-04-14T04:34:31.629Z,81.38
2019-04-14T04:37:03.984Z,80.96
2019-04-14T04:39:43.197Z,80.96
2019-04-14T04:42:13.865Z,80.73
2019-04-14T04:44:44.259Z,80.95
2019-04-14T04:47:14.758Z,81.77
2019-04-14T04:49:45.284Z,81.00
2019-04-14T04:52:16.931Z,80.92
2019-04-14T04:54:47.633Z,81.47
2019-04-14T04:57:18.132Z,81.29
2019-04-14T04:59:49.645Z,80.71
2019-04-14T05:02:20.434Z,80.42
2019-04-14T05:04:51.066Z,80.36
2019-04-14T05:07:21.498Z,81.35
2019-04-14T05:09:56.240Z,81.40
2019-04-14T05:12:31.097Z,80.39
2019-04-14T05:15:03.581Z,80.94
2019-04-14T05:17:36.677Z,81.53
2019-04-14T05:20:07.433Z,81.11
2019-04-14T05:22:39.811Z,81.09
2019-04-14T05:25:10.370Z,81.28
2019-04-14T05:27:40.950Z,81.17
2019-04-14T05:30:11.459Z,80.54
2019-04-14T05:32:41.965Z,81.19
2019-04-14T05:35:12.425Z,80.01
2019-04-14T05:37:42.891Z,80.80
2019-04-14T05:40:14.543Z,80.45
2019-04-14T05:42:45.163Z,80.20
2019-04-14T05:45:15.629Z,80.43
2019-04-14T05:47:46.091Z,80.46
2019-04-14T05:50:16.719Z,80.03
2019-04-14T05:52:47.226Z,79.66
2019-04-14T05:55:17.803Z,80.16
2019-04-14T05:57:48.283Z,80.48
2019-04-14T06:00:19.173Z,79.56
2019-04-14T06:02:50.678Z,80.25
2019-04-14T06:05:21.260Z,80.57
2019-04-14T06:07:51.744Z,80.83
2019-04-14T06:10:22.179Z,80.22
2019-04-14T06:12:52.670Z,81.36
2019-04-14T06:15:23.092Z,81.12
2019-04-14T06:17:53.577Z,79.81
2019-04-14T06:20:24.034Z,79.79
2019-04-14T06:22:55.471Z,81.03
2019-04-14T06:25:25.916Z,80.80
2019-04-14T06:27:56.382Z,80.93
2019-04-14T06:30:37.539Z,80.62
2019-04-14T06:33:09.598Z,80.89
2019-04-14T06:35:58.140Z,81.03
2019-04-14T06:38:32.908Z,80.57
2019-04-14T06:41:07.635Z,80.90
2019-04-14T06:43:48.388Z,80.47
2019-04-14T06:46:10.307Z,79.52
2019-04-14T06:48:40.771Z,80.16
2019-04-14T06:51:11.197Z,79.22
2019-04-14T06:53:41.659Z,80.16
2019-04-14T06:56:12.479Z,79.80
2019-04-14T06:58:42.954Z,79.46
2019-04-14T07:01:13.387Z,79.56
2019-04-14T07:03:43.865Z,79.65
2019-04-14T07:06:14.304Z,78.38
2019-04-14T07:08:44.758Z,79.72
2019-04-14T07:11:15.210Z,78.79
2019-04-14T07:13:48.219Z,78.45
2019-04-14T07:16:17.937Z,78.36
2019-04-14T07:18:48.377Z,78.85
2019-04-14T07:21:18.793Z,78.60
2019-04-14T07:23:50.259Z,77.33
2019-04-14T07:26:20.676Z,77.30
2019-04-14T07:28:56.899Z,77.58
2019-04-14T07:31:41.159Z,78.35
2019-04-14T07:34:22.212Z,78.20
2019-04-14T07:37:10.887Z,77.19
2019-04-14T07:39:49.064Z,76.95
2019-04-14T07:42:30.125Z,77.31
2019-04-14T07:45:17.284Z,76.70
2019-04-14T07:48:01.588Z,76.92
2019-04-14T07:50:48.863Z,76.53
2019-04-14T07:53:29.641Z,77.35
2019-04-14T07:56:01.678Z,78.11
2019-04-14T07:58:36.405Z,77.47
2019-04-14T08:01:11.345Z,77.38
2019-04-14T08:03:43.356Z,76.61
2019-04-14T08:06:13.816Z,77.71
2019-04-14T08:08:44.230Z,77.01
2019-04-14T08:11:14.687Z,77.45
2019-04-14T08:13:45.112Z,77.47
2019-04-14T08:16:15.627Z,77.65
2019-04-14T08:18:46.074Z,77.54
2019-04-14T08:21:16.576Z,76.96
2019-04-14T08:23:47.020Z,77.52
2019-04-14T08:26:18.714Z,76.33
2019-04-14T08:28:49.144Z,76.90
2019-04-14T08:31:19.623Z,76.96
2019-04-14T08:33:49.976Z,76.96
2019-04-14T08:36:20.449Z,77.00
2019-04-14T08:38:50.891Z,76.86
2019-04-14T08:41:21.381Z,77.02
2019-04-14T08:43:59.099Z,77.14
2019-04-14T08:46:34.245Z,77.36
2019-04-14T08:49:08.976Z,77.03
2019-04-14T08:51:56.151Z,76.70
2019-04-14T08:54:30.791Z,76.00
2019-04-14T08:57:02.832Z,76.97
2019-04-14T08:59:40.571Z,76.32
2019-04-14T09:02:18.640Z,76.29
2019-04-14T09:04:53.366Z,76.32
2019-04-14T09:07:31.458Z,76.58
2019-04-14T09:10:06.441Z,75.46
2019-04-14T09:12:38.496Z,75.24
2019-04-14T09:15:09.931Z,75.34
2019-04-14T09:17:40.422Z,75.88
2019-04-14T09:20:10.939Z,76.16
2019-04-14T09:22:41.423Z,75.17
2019-04-14T09:25:11.877Z,74.87
2019-04-14T09:27:43.314Z,75.78
2019-04-14T09:30:14.733Z,76.06
2019-04-14T09:32:45.419Z,75.20
2019-04-14T09:35:15.882Z,75.64
2019-04-14T09:37:46.364Z,75.77
2019-04-14T09:40:16.807Z,75.60
2019-04-14T09:42:47.404Z,74.36
2019-04-14T09:45:17.990Z,74.58
2019-04-14T09:47:48.573Z,74.31
2019-04-14T09:50:19.038Z,74.32
2019-04-14T09:52:49.555Z,73.67
2019-04-14T09:55:19.998Z,73.05
2019-04-14T09:57:50.479Z,73.74
2019-04-14T10:00:21.220Z,72.65
2019-04-14T10:02:51.816Z,71.98
2019-04-14T10:05:22.273Z,72.28
2019-04-14T10:07:52.752Z,70.83
2019-04-14T10:10:23.277Z,71.35
2019-04-14T10:12:53.865Z,71.66
2019-04-14T10:15:24.280Z,72.25
2019-04-14T10:17:54.762Z,72.48
2019-04-14T10:20:25.226Z,72.10
2019-04-14T10:22:55.823Z,72.21
2019-04-14T10:25:26.294Z,72.99
2019-04-14T10:27:57.716Z,72.41
2019-04-14T10:30:28.139Z,72.71
2019-04-14T10:32:58.665Z,72.28
2019-04-14T10:35:29.114Z,72.73
2019-04-14T10:37:59.634Z,72.72
2019-04-14T10:40:30.105Z,72.38
2019-04-14T10:43:00.592Z,71.79
2019-04-14T10:45:31.116Z,71.20
2019-04-14T10:48:01.614Z,72.02
2019-04-14T10:50:32.066Z,71.80
2019-04-14T10:53:02.554Z,70.89
2019-04-14T10:55:32.992Z,71.40
2019-04-14T10:58:03.503Z,70.53
2019-04-14T11:00:33.934Z,70.81
2019-04-14T11:03:04.641Z,71.46
2019-04-14T11:05:36.665Z,71.71
2019-04-14T11:08:07.201Z,71.47
2019-04-14T11:10:37.616Z,71.73
2019-04-14T11:13:08.095Z,72.25
2019-04-14T11:15:38.511Z,72.42
2019-04-14T11:18:09.006Z,72.04
2019-04-14T11:20:39.450Z,72.47
2019-04-14T11:23:09.943Z,72.47
2019-04-14T11:25:40.544Z,71.61
2019-04-14T11:28:12.118Z,71.61
2019-04-14T11:30:42.830Z,72.59
2019-04-14T11:33:17.623Z,71.89
2019-04-14T11:35:49.659Z,72.32
2019-04-14T11:38:21.675Z,72.32
2019-04-14T11:40:59.671Z,72.11
2019-04-14T11:43:30.164Z,72.45
2019-04-14T11:46:03.604Z,72.32
2019-04-14T11:48:33.374Z,72.32
2019-04-14T11:51:03.845Z,71.48
2019-04-14T11:53:34.536Z,71.94
2019-04-14T11:56:05.092Z,72.34
2019-04-14T11:58:35.546Z,71.53
2019-04-14T12:01:10.378Z,71.55
2019-04-14T12:03:57.740Z,72.70
2019-04-14T12:06:35.760Z,71.16
2019-04-14T12:09:11.463Z,71.16
2019-04-14T12:11:41.920Z,71.57
2019-04-14T12:14:12.395Z,71.57
2019-04-14T12:16:42.885Z,70.68
2019-04-14T12:19:13.361Z,71.25
2019-04-14T12:21:46.682Z,71.01
2019-04-14T12:24:18.607Z,71.95
2019-04-14T12:26:49.061Z,71.91
2019-04-14T12:29:19.757Z,70.84
2019-04-14T12:31:50.983Z,71.16
2019-04-14T12:34:21.558Z,71.10
2019-04-14T12:36:52.001Z,72.03
2019-04-14T12:39:25.622Z,72.03
2019-04-14T12:41:58.687Z,72.93
2019-04-14T12:44:30.731Z,72.10
2019-04-14T12:47:05.956Z,72.79
2019-04-14T12:49:38.028Z,72.96
2019-04-14T12:52:21.853Z,73.46
2019-04-14T12:54:53.215Z,73.38
2019-04-14T12:57:25.240Z,72.88
2019-04-14T12:59:55.721Z,73.08
2019-04-14T13:02:30.740Z,73.59
2019-04-14T13:05:01.216Z,73.59
2019-04-14T13:07:31.654Z,73.26
2019-04-14T13:10:02.178Z,73.26
2019-04-14T13:12:32.606Z,73.56
2019-04-14T13:15:08.249Z,72.76
2019-04-14T13:17:38.781Z,73.36
2019-04-14T13:20:10.259Z,73.09
2019-04-14T13:22:40.691Z,73.83
2019-04-14T13:25:11.283Z,74.08
2019-04-14T13:27:41.811Z,73.48
2019-04-14T13:30:15.118Z,73.48
2019-04-14T13:32:45.636Z,73.04
2019-04-14T13:35:16.109Z,73.32
2019-04-14T13:37:46.523Z,73.06
2019-04-14T13:40:17.278Z,74.36
2019-04-14T13:42:48.831Z,74.08
2019-04-14T13:45:19.299Z,73.78
2019-04-14T13:47:49.733Z,73.38
2019-04-14T13:50:20.227Z,74.23
2019-04-14T13:52:50.669Z,73.45
2019-04-14T13:55:21.243Z,73.45
2019-04-14T13:57:51.710Z,73.37
2019-04-14T14:00:25.560Z,74.03
2019-04-14T14:02:55.998Z,74.56
2019-04-14T14:05:26.508Z,75.09
2019-04-14T14:07:56.939Z,74.55
2019-04-14T14:10:27.777Z,74.82
2019-04-14T14:13:15.996Z,73.96
2019-04-14T14:15:50.777Z,73.99
2019-04-14T14:18:38.984Z,74.45
2019-04-14T14:21:23.400Z,73.82
2019-04-14T14:23:55.443Z,74.21
2019-04-14T14:26:27.520Z,74.32
2019-04-14T14:28:57.973Z,73.37
2019-04-14T14:31:28.696Z,74.07
2019-04-14T14:33:59.107Z,74.40
2019-04-14T14:36:29.693Z,74.34
2019-04-14T14:39:00.123Z,74.55
2019-04-14T14:41:30.610Z,73.54
2019-04-14T14:44:01.088Z,73.84
2019-04-14T14:46:37.061Z,74.40
2019-04-14T14:49:09.135Z,73.93
2019-04-14T14:51:41.270Z,74.26
2019-04-14T14:54:11.738Z,73.96
2019-04-14T14:56:42.406Z,73.48
2019-04-14T14:59:12.846Z,74.35
2019-04-14T15:01:43.401Z,73.99
2019-04-14T15:04:13.957Z,74.37
2019-04-14T15:06:44.519Z,74.41
2019-04-14T15:09:14.956Z,75.06
2019-04-14T15:11:45.458Z,74.76
2019-04-14T15:14:16.216Z,74.72
2019-04-14T15:16:46.730Z,74.62
2019-04-14T15:19:17.168Z,75.09
2019-04-14T15:21:47.640Z,73.97
2019-04-14T15:24:18.106Z,74.85
2019-04-14T15:26:48.618Z,75.19
2019-04-14T15:29:19.058Z,74.17
2019-04-14T15:31:50.561Z,74.84
2019-04-14T15:34:20.998Z,74.85
2019-04-14T15:36:51.480Z,74.15
2019-04-14T15:39:21.902Z,73.72
2019-04-14T15:41:52.376Z,74.52
2019-04-14T15:44:22.802Z,73.71
2019-04-14T15:46:53.530Z,74.75
2019-04-14T15:49:24.474Z,74.97
2019-04-14T15:51:54.968Z,74.34
2019-04-14T15:54:25.677Z,75.53
2019-04-14T15:57:09.746Z,74.82
2019-04-14T15:59:41.739Z,75.53
2019-04-14T16:02:22.682Z,74.68
2019-04-14T16:05:00.836Z,74.94
2019-04-14T16:07:49.569Z,74.76
2019-04-14T16:10:24.570Z,75.43
2019-04-14T16:13:02.484Z,75.78
2019-04-14T16:15:34.514Z,75.57
2019-04-14T16:18:06.572Z,75.79
2019-04-14T16:20:38.603Z,75.61
2019-04-14T16:23:09.143Z,75.96
2019-04-14T16:25:43.881Z,75.68
2019-04-14T16:28:21.697Z,75.57
2019-04-14T16:31:06.039Z,74.73
2019-04-14T16:33:56.399Z,75.04
2019-04-14T16:36:26.943Z,74.66
2019-04-14T16:38:57.444Z,75.17
2019-04-14T16:41:27.880Z,75.69
2019-04-14T16:43:58.846Z,75.69
2019-04-14T16:46:29.281Z,75.68
2019-04-14T16:48:59.807Z,74.56
2019-04-14T16:51:31.833Z,75.89
2019-04-14T16:54:04.153Z,75.12
2019-04-14T16:56:52.548Z,74.80
2019-04-14T16:59:23.077Z,75.27
2019-04-14T17:01:53.647Z,75.42
2019-04-14T17:04:24.139Z,74.67
2019-04-14T17:06:54.615Z,75.62
2019-04-14T17:09:25.342Z,75.59
2019-04-14T17:11:55.787Z,74.72
2019-04-14T17:14:30.936Z,75.15
2019-04-14T17:17:03.016Z,75.20
2019-04-14T17:19:35.085Z,74.97
2019-04-14T17:22:09.815Z,75.40
2019-04-14T17:24:58.071Z,75.90
2019-04-14T17:27:33.240Z,76.09
2019-04-14T17:30:15.641Z,75.92
2019-04-14T17:32:47.678Z,75.30
2019-04-14T17:35:21.697Z,75.89
2019-04-14T17:37:53.697Z,75.83
2019-04-14T17:40:41.818Z,75.72
2019-04-14T17:43:22.947Z,75.30
2019-04-14T17:46:07.071Z,75.90
2019-04-14T17:48:39.083Z,76.03
2019-04-14T17:51:11.107Z,75.78
2019-04-14T17:53:55.188Z,75.90
2019-04-14T17:56:30.508Z,76.28
2019-04-14T17:59:14.396Z,75.77
2019-04-14T18:01:52.165Z,75.96
2019-04-14T18:04:40.516Z,76.97
2019-04-14T18:07:24.677Z,76.46
2019-04-14T18:10:02.897Z,76.37
2019-04-14T18:12:37.722Z,76.26
2019-04-14T18:15:11.732Z,75.82
2019-04-14T18:17:58.776Z,76.72
2019-04-14T18:20:30.839Z,77.00
2019-04-14T18:23:01.568Z,77.42
2019-04-14T18:25:32.019Z,76.86
2019-04-14T18:28:22.174Z,77.45
2019-04-14T18:30:54.196Z,77.56
2019-04-14T18:33:32.379Z,77.60
2019-04-14T18:36:14.340Z,77.84
2019-04-14T18:38:49.372Z,77.94
2019-04-14T18:41:21.401Z,78.15
2019-04-14T18:44:05.356Z,77.93
2019-04-14T18:46:40.668Z,78.11
2019-04-14T18:49:12.732Z,78.30
2019-04-14T18:51:59.885Z,78.06
2019-04-14T18:54:34.737Z,78.42
2019-04-14T18:57:06.773Z,78.22
2019-04-14T18:59:38.815Z,78.75
2019-04-14T19:02:10.468Z,78.38
2019-04-14T19:04:41.023Z,78.37
2019-04-14T19:07:11.501Z,79.12
2019-04-14T19:09:42.026Z,79.64
2019-04-14T19:12:20.188Z,79.52
2019-04-14T19:14:52.288Z,78.90
2019-04-14T19:17:24.312Z,79.82
2019-04-14T19:20:02.108Z,79.70
2019-04-14T19:22:28.548Z,79.00
2019-04-14T19:25:07.942Z,79.39
2019-04-14T19:27:31.245Z,79.64
2019-04-14T19:30:01.697Z,80.02
2019-04-14T19:32:32.105Z,80.29
2019-04-14T19:35:02.543Z,80.39
2019-04-14T19:37:33.990Z,80.42
2019-04-14T19:40:06.540Z,80.43
2019-04-14T19:42:37.022Z,80.50
2019-04-14T19:45:08.062Z,81.14
2019-04-14T19:47:38.550Z,82.19
2019-04-14T19:50:09.015Z,81.71
2019-04-14T19:52:39.475Z,82.37
2019-04-14T19:55:19.832Z,82.41
2019-04-14T19:57:42.171Z,82.58
2019-04-14T20:00:12.922Z,83.23
2019-04-14T20:02:43.391Z,83.43
2019-04-14T20:05:14.076Z,83.60
2019-04-14T20:07:44.641Z,84.25
2019-04-14T20:10:15.094Z,84.76
2019-04-14T20:12:45.718Z,84.45
2019-04-14T20:15:17.876Z,85.72
2019-04-14T20:17:52.963Z,86.12
2019-04-14T20:20:41.191Z,86.69
2019-04-14T20:23:13.373Z,86.60
2019-04-14T20:25:51.206Z,86.83
2019-04-14T20:28:23.261Z,87.47
2019-04-14T20:30:55.278Z,86.46
2019-04-14T20:33:25.773Z,86.90
2019-04-14T20:35:56.213Z,87.96
2019-04-14T20:38:27.711Z,87.71
2019-04-14T20:40:58.144Z,88.62
2019-04-14T20:43:28.634Z,88.71
2019-04-14T20:45:59.214Z,88.31
2019-04-14T20:48:29.723Z,89.10
2019-04-14T20:51:00.158Z,88.22
2019-04-14T20:53:30.649Z,88.66
2019-04-14T20:56:01.096Z,88.76
2019-04-14T20:58:31.595Z,89.17
2019-04-14T21:01:02.256Z,89.00
2019-04-14T21:03:46.382Z,89.49
2019-04-14T21:06:21.436Z,89.46
2019-04-14T21:09:10.112Z,90.02
2019-04-14T21:11:42.097Z,89.95
2019-04-14T21:14:23.644Z,89.51
2019-04-14T21:16:55.799Z,89.23
2019-04-14T21:19:34.232Z,89.90
2019-04-14T21:22:09.291Z,89.84
2019-04-14T21:24:41.376Z,89.10
2019-04-14T21:27:19.925Z,89.34
2019-04-14T21:29:55.038Z,89.05
2019-04-14T21:32:43.429Z,89.52
2019-04-14T21:35:14.818Z,90.89
2019-04-14T21:37:52.835Z,91.08
2019-04-14T21:40:35.068Z,90.73
2019-04-14T21:43:05.492Z,90.82
2019-04-14T21:45:35.982Z,91.16
2019-04-14T21:48:06.449Z,90.87
2019-04-14T21:50:37.432Z,90.49
2019-04-14T21:53:07.961Z,90.54
2019-04-14T21:55:38.428Z,90.26
2019-04-14T21:58:10.443Z,90.56
2019-04-14T22:01:05.929Z,90.29
2019-04-14T22:03:38.144Z,91.18
2019-04-14T22:06:16.185Z,91.25
2019-04-14T22:08:48.261Z,91.33
2019-04-14T22:11:23.185Z,90.89
2019-04-14T22:13:53.607Z,89.98
2019-04-14T22:16:24.090Z,90.52
2019-04-14T22:18:54.940Z,91.31
2019-04-14T22:21:25.445Z,91.40
2019-04-14T22:24:01.548Z,90.91
2019-04-14T22:26:28.078Z,91.35
2019-04-14T22:28:58.511Z,91.35
2019-04-14T22:31:28.973Z,90.74
2019-04-14T22:33:59.418Z,90.80
2019-04-14T22:36:29.804Z,90.82
2019-04-14T22:39:00.231Z,91.25
2019-04-14T22:41:31.733Z,91.06
2019-04-14T22:44:02.165Z,90.73
2019-04-14T22:46:32.636Z,91.47
2019-04-14T22:49:03.076Z,90.51
2019-04-14T22:51:33.537Z,89.93
2019-04-14T22:54:04.038Z,90.37
2019-04-14T22:56:39.455Z,90.36
2019-04-14T22:59:06.688Z,89.90
2019-04-14T23:01:38.743Z,90.22
2019-04-14T23:04:22.984Z,89.51
2019-04-14T23:07:03.798Z,90.21
2019-04-14T23:09:41.816Z,89.71
2019-04-14T23:12:29.961Z,89.70
2019-04-14T23:15:01.966Z,90.22
2019-04-14T23:17:34.027Z,89.95
2019-04-14T23:20:17.141Z,90.46
2019-04-14T23:22:49.198Z,89.67
2019-04-14T23:25:19.637Z,89.94
2019-04-14T23:27:50.127Z,90.04
2019-04-14T23:30:20.650Z,90.10
2019-04-14T23:32:51.345Z,89.99
2019-04-14T23:35:21.799Z,90.19
2019-04-14T23:37:52.300Z,90.30
2019-04-14T23:40:22.743Z,90.71
2019-04-14T23:42:54.237Z,90.78
2019-04-14T23:45:24.670Z,90.45
2019-04-14T23:47:55.119Z,90.68
2019-04-14T23:50:25.574Z,90.98
2019-04-14T23:52:56.025Z,91.30
2019-04-14T23:55:26.527Z,91.83
2019-04-14T23:57:57.052Z,91.82
